Time;durP1;ratioP1;P1;durP2;ratioP2;P2;SDS_P1;SDS_P2;PMS_P1;PMS_P2;Temp;Humidity;BMP_temperature;BMP_pressure;BME280_temperature;BME280_humidity;BME280_pressure;Samples;Min_cycle;Max_cycle;Signal;HPM_P1;HPM_P2
2023/12/25 00:01:48;;;;;;;36.30;24.67;;;;;;;-0.33;100.00;96604.66;5088088;28;20055;-66
2023/12/25 00:04:14;;;;;;;35.15;23.73;;;;;;;-0.40;100.00;96606.59;5087841;28;20023;-66
2023/12/25 00:06:39;;;;;;;33.95;24.00;;;;;;;-0.39;100.00;96597.94;5096859;28;20496;-65
2023/12/25 00:09:05;;;;;;;31.63;20.48;;;;;;;-0.38;100.00;96606.56;5087848;28;20044;-66
2023/12/25 00:11:30;;;;;;;29.85;20.83;;;;;;;-0.38;100.00;96609.97;5083855;28;20021;-65
2023/12/25 00:13:57;;;;;;;55.55;29.00;;;;;;;-0.35;100.00;96607.28;5090839;28;20035;-66
2023/12/25 00:16:26;;;;;;;40.53;26.88;;;;;;;-0.37;100.00;96609.06;5090394;28;20040;-65
2023/12/25 00:18:51;;;;;;;43.97;27.52;;;;;;;-0.42;100.00;96612.72;5087722;28;20052;-65
2023/12/25 00:21:16;;;;;;;46.90;26.75;;;;;;;-0.49;100.00;96610.31;5099146;28;20035;-66
2023/12/25 00:23:42;;;;;;;51.83;28.63;;;;;;;-0.56;100.00;96611.44;5093583;28;20028;-66
2023/12/25 00:26:08;;;;;;;43.03;27.70;;;;;;;-0.55;100.00;96609.69;5088892;28;20070;-66
2023/12/25 00:28:33;;;;;;;45.88;29.73;;;;;;;-0.55;100.00;96615.72;5084163;28;20048;-66
2023/12/25 00:30:58;;;;;;;44.65;27.00;;;;;;;-0.54;100.00;96595.88;5086567;28;20028;-66
2023/12/25 00:33:24;;;;;;;43.63;27.13;;;;;;;-0.50;100.00;96607.81;5092715;28;20042;-66
2023/12/25 00:35:49;;;;;;;50.05;28.95;;;;;;;-0.53;100.00;96608.75;5097371;28;20035;-65
2023/12/25 00:38:14;;;;;;;40.30;24.38;;;;;;;-0.54;100.00;96619.16;5091735;28;20052;-65
2023/12/25 00:40:40;;;;;;;40.40;23.25;;;;;;;-0.58;100.00;96621.81;5098229;28;20039;-66
2023/12/25 00:43:05;;;;;;;46.60;25.58;;;;;;;-0.58;100.00;96626.16;5093863;28;20435;-65
2023/12/25 00:45:30;;;;;;;62.90;27.83;;;;;;;-0.60;100.00;96630.56;5090239;28;20462;-65
2023/12/25 00:47:56;;;;;;;49.33;28.08;;;;;;;-0.57;100.00;96620.09;5089249;28;20054;-65
2023/12/25 00:50:21;;;;;;;49.50;26.88;;;;;;;-0.61;100.00;96623.69;5093463;28;20030;-65
2023/12/25 00:52:47;;;;;;;46.90;26.88;;;;;;;-0.60;100.00;96628.78;5094471;28;20068;-65
2023/12/25 00:55:12;;;;;;;44.88;25.83;;;;;;;-0.61;100.00;96626.28;5091405;28;20030;-65
2023/12/25 00:57:38;;;;;;;47.53;25.95;;;;;;;-0.68;100.00;96625.63;5097438;28;20012;-65
2023/12/25 01:00:03;;;;;;;37.28;22.73;;;;;;;-0.69;100.00;96618.75;5092361;28;20115;-66
2023/12/25 01:02:29;;;;;;;33.83;18.52;;;;;;;-0.64;100.00;96621.22;5088323;28;20036;-65
2023/12/25 01:04:55;;;;;;;41.38;24.25;;;;;;;-0.66;100.00;96618.66;5094218;28;20032;-65
2023/12/25 01:07:20;;;;;;;42.97;25.88;;;;;;;-0.67;100.00;96618.69;5093132;28;20064;-65
2023/12/25 01:09:45;;;;;;;52.47;28.95;;;;;;;-0.70;100.00;96614.47;5092549;28;20029;-65
2023/12/25 01:12:11;;;;;;;44.15;26.38;;;;;;;-0.64;100.00;96609.09;5094894;28;20031;-65
2023/12/25 01:14:37;;;;;;;44.63;23.02;;;;;;;-0.59;100.00;96609.78;5092777;28;20024;-65
2023/12/25 01:17:02;;;;;;;50.75;24.48;;;;;;;-0.54;100.00;96609.66;5090956;28;20100;-68
2023/12/25 01:19:27;;;;;;;50.67;26.60;;;;;;;-0.56;100.00;96615.75;5093838;28;20052;-66
2023/12/25 01:21:53;;;;;;;65.65;29.17;;;;;;;-0.59;100.00;96620.13;5090566;28;20104;-65
2023/12/25 01:24:18;;;;;;;74.47;33.95;;;;;;;-0.64;100.00;96616.84;5089248;28;20032;-65
2023/12/25 01:26:43;;;;;;;44.25;25.65;;;;;;;-0.64;100.00;96616.84;5095010;28;20397;-65
2023/12/25 01:29:09;;;;;;;35.88;21.55;;;;;;;-0.72;100.00;96601.59;5088047;28;20533;-65
2023/12/25 01:31:35;;;;;;;41.88;22.85;;;;;;;-0.73;100.00;96605.06;5085284;28;20032;-65
2023/12/25 01:34:01;;;;;;;41.03;22.80;;;;;;;-0.70;100.00;96606.72;5092365;28;20062;-65
2023/12/25 01:36:27;;;;;;;42.30;24.67;;;;;;;-0.67;100.00;96611.78;5094084;28;20032;-65
2023/12/25 01:38:52;;;;;;;41.67;22.52;;;;;;;-0.67;100.00;96598.88;5092645;28;20089;-65
2023/12/25 01:41:17;;;;;;;38.25;21.45;;;;;;;-0.66;100.00;96594.56;5093724;28;20082;-65
2023/12/25 01:43:43;;;;;;;39.00;22.73;;;;;;;-0.65;100.00;96596.25;5090495;28;20106;-66
2023/12/25 01:46:11;;;;;;;33.90;22.77;;;;;;;-0.65;100.00;96591.88;5091447;28;20035;-65
2023/12/25 01:48:36;;;;;;;44.03;24.83;;;;;;;-0.64;100.00;96580.66;5091117;28;20492;-65
2023/12/25 01:51:03;;;;;;;43.42;25.25;;;;;;;-0.66;100.00;96582.44;5092039;28;20019;-66
2023/12/25 01:53:29;;;;;;;40.95;23.92;;;;;;;-0.69;100.00;96577.38;5090781;28;20021;-66
2023/12/25 01:55:54;;;;;;;42.25;23.10;;;;;;;-0.71;100.00;96581.75;5097228;28;20022;-65
2023/12/25 01:58:20;;;;;;;40.40;22.63;;;;;;;-0.70;100.00;96586.03;5091957;28;20416;-65
2023/12/25 02:00:45;;;;;;;49.95;26.92;;;;;;;-0.74;100.00;96574.09;5086791;28;20070;-66
2023/12/25 02:03:11;;;;;;;49.33;29.27;;;;;;;-0.77;100.00;96569.03;5091301;28;20020;-66
2023/12/25 02:05:36;;;;;;;46.95;25.75;;;;;;;-0.83;100.00;96569.22;5092849;28;20020;-66
2023/12/25 02:08:03;;;;;;;45.00;26.20;;;;;;;-0.81;100.00;96572.59;5090580;28;20120;-65
2023/12/25 02:10:29;;;;;;;76.43;38.25;;;;;;;-0.76;100.00;96575.91;5096013;28;20051;-67
2023/12/25 02:12:55;;;;;;;76.13;40.63;;;;;;;-0.66;100.00;96577.28;5095798;28;20056;-66
2023/12/25 02:15:22;;;;;;;54.00;30.27;;;;;;;-0.62;100.00;96565.91;5089601;28;20051;-67
2023/12/25 02:17:49;;;;;;;47.65;23.30;;;;;;;-0.67;100.00;96562.66;5093438;28;20020;-66
2023/12/25 02:20:15;;;;;;;35.95;19.40;;;;;;;-0.71;100.00;96563.66;5090399;28;20569;-66
2023/12/25 02:22:41;;;;;;;34.90;19.65;;;;;;;-0.73;100.00;96571.44;5097970;28;20112;-67
2023/12/25 02:25:22;;;;;;;44.63;22.77;;;;;;;-0.72;100.00;96572.31;5092470;28;20027;-67
2023/12/25 02:27:47;;;;;;;75.00;33.88;;;;;;;-0.70;100.00;96567.06;5094906;28;20032;-67
2023/12/25 02:30:13;;;;;;;41.08;21.50;;;;;;;-0.65;100.00;96565.19;5084122;28;20031;-67
2023/12/25 02:32:38;;;;;;;27.13;15.55;;;;;;;-0.68;100.00;96566.13;5093014;28;20632;-67
2023/12/25 02:35:04;;;;;;;19.40;12.98;;;;;;;-0.61;100.00;96561.59;5093218;28;20617;-67
2023/12/25 02:37:30;;;;;;;19.50;13.60;;;;;;;-0.63;100.00;96559.06;5090230;28;20020;-67
2023/12/25 02:39:55;;;;;;;19.15;12.60;;;;;;;-0.65;100.00;96560.03;5095218;28;20028;-67
2023/12/25 02:42:20;;;;;;;14.93;11.07;;;;;;;-0.66;100.00;96553.16;5086806;28;20035;-67
2023/12/25 02:44:46;;;;;;;16.35;11.20;;;;;;;-0.64;100.00;96557.38;5091987;28;20080;-65
2023/12/25 02:47:11;;;;;;;16.30;11.23;;;;;;;-0.65;100.00;96567.78;5096646;28;20032;-65
2023/12/25 02:49:36;;;;;;;16.35;12.23;;;;;;;-0.65;100.00;96572.97;5092392;28;20020;-67
2023/12/25 02:52:02;;;;;;;16.88;11.65;;;;;;;-0.72;100.00;96567.97;5088092;28;20024;-67
2023/12/25 02:54:27;;;;;;;19.95;13.65;;;;;;;-0.69;100.00;96572.22;5087034;28;20020;-67
2023/12/25 02:56:52;;;;;;;26.00;16.00;;;;;;;-0.75;100.00;96577.59;5093773;28;20034;-67
2023/12/25 02:59:18;;;;;;;22.40;14.27;;;;;;;-0.77;100.00;96571.63;5089713;28;20020;-67
2023/12/25 03:01:43;;;;;;;31.40;17.40;;;;;;;-0.70;100.00;96570.50;5090906;28;20068;-67
2023/12/25 03:04:09;;;;;;;65.63;38.05;;;;;;;-0.76;100.00;96578.50;5094252;28;20017;-67
2023/12/25 03:06:34;;;;;;;45.20;28.65;;;;;;;-0.75;100.00;96575.00;5090312;28;20020;-67
2023/12/25 03:08:59;;;;;;;40.20;25.27;;;;;;;-0.74;100.00;96574.09;5086682;28;20016;-68
2023/12/25 03:11:25;;;;;;;26.75;18.38;;;;;;;-0.81;100.00;96568.28;5090714;28;20023;-67
2023/12/25 03:13:50;;;;;;;22.45;14.13;;;;;;;-0.84;100.00;96572.69;5089340;28;20083;-67
2023/12/25 03:16:18;;;;;;;21.10;13.93;;;;;;;-0.83;100.00;96567.50;5090141;28;20519;-67
2023/12/25 03:18:43;;;;;;;19.00;12.82;;;;;;;-0.85;100.00;96571.00;5092003;28;20397;-67
2023/12/25 03:21:09;;;;;;;18.58;14.15;;;;;;;-0.80;100.00;96572.56;5091662;28;20018;-65
2023/12/25 03:23:34;;;;;;;16.30;11.98;;;;;;;-0.81;100.00;96582.94;5090670;28;20024;-65
2023/12/25 03:26:00;;;;;;;18.42;13.18;;;;;;;-0.82;100.00;96568.31;5090249;28;20024;-65
2023/12/25 03:28:27;;;;;;;22.45;15.45;;;;;;;-0.84;100.00;96572.69;5096064;28;20039;-67
2023/12/25 03:30:53;;;;;;;24.25;17.42;;;;;;;-0.93;100.00;96568.69;5088159;28;20097;-67
2023/12/25 03:33:19;;;;;;;19.42;12.90;;;;;;;-0.81;100.00;96575.19;5093099;28;20020;-65
2023/12/25 03:35:44;;;;;;;19.38;13.18;;;;;;;-0.74;100.00;96574.09;5091521;28;20021;-65
2023/12/25 03:38:09;;;;;;;19.75;13.65;;;;;;;-0.81;100.00;96575.19;5083795;28;20020;-68
2023/12/25 03:40:35;;;;;;;15.05;11.32;;;;;;;-0.84;100.00;96575.28;5092467;28;20032;-68
2023/12/25 03:43:00;;;;;;;15.35;11.70;;;;;;;-0.88;100.00;96577.97;5091937;28;20031;-67
2023/12/25 03:45:25;;;;;;;15.75;10.73;;;;;;;-0.89;100.00;96571.13;5086717;28;20090;-68
2023/12/25 03:47:51;;;;;;;16.77;10.60;;;;;;;-0.87;100.00;96579.66;5093086;28;20032;-68
2023/12/25 03:50:17;;;;;;;15.77;10.30;;;;;;;-0.88;100.00;96577.16;5087203;28;20515;-68
2023/12/25 03:52:42;;;;;;;13.02;8.90;;;;;;;-0.85;100.00;96573.59;5085771;28;20017;-68
2023/12/25 03:55:08;;;;;;;12.95;9.52;;;;;;;-0.87;100.00;96566.75;5093386;28;20467;-67
2023/12/25 03:57:33;;;;;;;9.75;8.75;;;;;;;-0.90;100.00;96564.25;5091748;28;20020;-68
2023/12/25 03:59:59;;;;;;;11.80;8.95;;;;;;;-0.94;100.00;96554.06;5092294;28;20028;-67
2023/12/25 04:02:24;;;;;;;13.60;9.88;;;;;;;-0.96;100.00;96556.72;5093928;28;20607;-67
2023/12/25 04:04:49;;;;;;;11.93;9.02;;;;;;;-0.98;100.00;96558.50;5093360;28;20100;-68
2023/12/25 04:07:15;;;;;;;10.55;8.45;;;;;;;-1.00;100.00;96555.09;5084399;28;20028;-68
2023/12/25 04:09:43;;;;;;;10.60;8.95;;;;;;;-1.03;100.00;96557.78;5090271;28;20024;-68
2023/12/25 04:12:09;;;;;;;10.60;8.18;;;;;;;-1.06;100.00;96550.13;5091164;28;20024;-68
2023/12/25 04:14:40;;;;;;;8.20;7.40;;;;;;;-1.04;100.00;96556.09;5091954;28;20032;-66
2023/12/25 04:17:05;;;;;;;8.65;7.05;;;;;;;-1.02;100.00;96551.72;5092623;28;20391;-67
2023/12/25 04:19:32;;;;;;;7.53;6.70;;;;;;;-1.05;100.00;96549.25;5093734;28;20048;-67
2023/12/25 04:21:58;;;;;;;8.60;6.80;;;;;;;-1.04;100.00;96553.50;5093106;28;20111;-67
2023/12/25 04:24:23;;;;;;;9.68;7.20;;;;;;;-1.08;100.00;96545.03;5088147;28;20105;-67
2023/12/25 04:26:48;;;;;;;18.17;10.43;;;;;;;-1.09;100.00;96547.66;5092463;28;20031;-68
2023/12/25 04:29:14;;;;;;;8.57;7.55;;;;;;;-1.10;100.00;96549.41;5089421;28;20016;-68
2023/12/25 04:31:39;;;;;;;8.77;6.90;;;;;;;-1.10;100.00;96546.81;5100500;28;20024;-68
2023/12/25 04:34:05;;;;;;;8.35;7.55;;;;;;;-1.09;100.00;96550.22;5094373;28;20043;-67
2023/12/25 04:36:30;;;;;;;7.13;6.43;;;;;;;-1.11;100.00;96546.84;5091823;28;20555;-68
2023/12/25 04:38:58;;;;;;;8.75;6.63;;;;;;;-1.09;100.00;96545.06;5096026;28;20024;-68
2023/12/25 04:41:23;;;;;;;8.50;6.53;;;;;;;-1.15;100.00;96543.50;5093839;28;20031;-67
2023/12/25 04:43:50;;;;;;;7.88;6.70;;;;;;;-1.20;100.00;96532.47;5092087;28;20027;-65
2023/12/25 04:46:17;;;;;;;7.43;6.63;;;;;;;-1.17;100.00;96535.81;5090715;28;20036;-67
2023/12/25 04:48:42;;;;;;;6.63;6.03;;;;;;;-1.18;100.00;96544.47;5094774;28;20032;-68
2023/12/25 04:51:08;;;;;;;6.55;5.90;;;;;;;-1.08;100.00;96528.66;5095102;28;20073;-67
2023/12/25 04:53:34;;;;;;;7.00;5.90;;;;;;;-1.11;100.00;96531.34;5089637;28;20032;-66
2023/12/25 04:56:00;;;;;;;7.25;5.97;;;;;;;-1.16;100.00;96529.75;5098046;28;20027;-67
2023/12/25 04:58:26;;;;;;;7.45;6.43;;;;;;;-1.17;100.00;96528.06;5095468;28;20545;-66
2023/12/25 05:00:51;;;;;;;6.43;5.82;;;;;;;-1.13;100.00;96527.97;5093326;28;20020;-68
2023/12/25 05:03:17;;;;;;;8.18;6.32;;;;;;;-1.15;100.00;96528.00;5090623;28;20063;-68
2023/12/25 05:05:42;;;;;;;9.32;5.82;;;;;;;-1.20;100.00;96520.44;5089077;28;20024;-67
2023/12/25 05:08:07;;;;;;;7.38;6.45;;;;;;;-1.23;100.00;96525.66;5090735;28;20023;-67
2023/12/25 05:10:33;;;;;;;7.15;6.45;;;;;;;-1.24;100.00;96521.41;5093221;28;20049;-68
2023/12/25 05:12:59;;;;;;;7.57;6.35;;;;;;;-1.23;100.00;96528.25;5095885;28;20032;-67
2023/12/25 05:15:24;;;;;;;9.40;7.07;;;;;;;-1.27;100.00;96518.91;5101309;28;20903;-65
2023/12/25 05:17:50;;;;;;;12.80;9.20;;;;;;;-1.28;100.00;96524.97;5095641;28;20055;-66
2023/12/25 05:20:16;;;;;;;9.95;8.00;;;;;;;-1.29;100.00;96520.69;5087211;28;20056;-68
2023/12/25 05:22:41;;;;;;;9.50;7.88;;;;;;;-1.32;100.00;96531.13;5102635;28;20498;-68
2023/12/25 05:25:06;;;;;;;10.95;8.45;;;;;;;-1.42;100.00;96532.34;5094961;28;20034;-68
2023/12/25 05:27:32;;;;;;;12.10;7.70;;;;;;;-1.47;100.00;96525.53;5091698;28;20037;-67
2023/12/25 05:29:59;;;;;;;8.30;6.80;;;;;;;-1.40;100.00;96530.53;5093503;28;20020;-68
2023/12/25 05:32:24;;;;;;;8.60;6.47;;;;;;;-1.35;100.00;96533.81;5096892;28;20031;-67
2023/12/25 05:34:49;;;;;;;6.90;5.97;;;;;;;-1.28;100.00;96540.47;5097071;28;20023;-65
2023/12/25 05:37:15;;;;;;;7.00;5.75;;;;;;;-1.28;100.00;96537.91;5092400;28;20084;-66
2023/12/25 05:39:40;;;;;;;6.95;5.95;;;;;;;-1.32;100.00;96539.75;5100665;28;20489;-68
2023/12/25 05:42:05;;;;;;;6.80;6.00;;;;;;;-1.38;100.00;96539.91;5086862;28;20032;-65
2023/12/25 05:44:31;;;;;;;8.60;6.28;;;;;;;-1.41;100.00;96536.59;5085232;28;20028;-67
2023/12/25 05:46:56;;;;;;;6.43;5.82;;;;;;;-1.43;100.00;96536.63;5094434;27;20464;-68
2023/12/25 05:49:21;;;;;;;7.30;6.32;;;;;;;-1.45;100.00;96531.50;5086441;28;20115;-68
2023/12/25 05:51:47;;;;;;;7.97;5.60;;;;;;;-1.47;100.00;96535.88;5087340;28;20032;-66
2023/12/25 05:54:12;;;;;;;6.30;5.60;;;;;;;-1.47;100.00;96535.06;5091862;28;20043;-67
2023/12/25 05:56:37;;;;;;;5.75;4.95;;;;;;;-1.46;100.00;96529.00;5091258;28;20023;-69
2023/12/25 05:59:04;;;;;;;6.22;5.40;;;;;;;-1.47;100.00;96525.53;5091997;28;20029;-67
2023/12/25 06:01:30;;;;;;;6.25;5.40;;;;;;;-1.46;100.00;96527.25;5091997;28;20380;-68
2023/12/25 06:03:55;;;;;;;6.65;6.05;;;;;;;-1.50;100.00;96511.91;5092401;28;20024;-68
2023/12/25 06:06:20;;;;;;;6.22;5.65;;;;;;;-1.51;100.00;96517.97;5089217;28;20583;-68
2023/12/25 06:08:46;;;;;;;7.32;6.55;;;;;;;-1.52;100.00;96522.28;5095434;28;20460;-67
2023/12/25 06:11:11;;;;;;;8.18;7.00;;;;;;;-1.53;100.00;96533.50;5087593;28;20025;-67
2023/12/25 06:13:37;;;;;;;7.75;6.30;;;;;;;-1.57;100.00;96529.31;5097550;28;20421;-67
2023/12/25 06:16:03;;;;;;;7.28;6.55;;;;;;;-1.57;100.00;96534.47;5094061;28;20039;-66
2023/12/25 06:18:28;;;;;;;8.98;6.63;;;;;;;-1.58;100.00;96535.38;5088170;28;20063;-65
2023/12/25 06:20:54;;;;;;;7.68;6.28;;;;;;;-1.54;100.00;96533.56;5097021;28;20051;-67
2023/12/25 06:23:19;;;;;;;8.55;6.47;;;;;;;-1.54;100.00;96541.31;5090396;28;20496;-68
2023/12/25 06:25:46;;;;;;;9.13;6.85;;;;;;;-1.58;100.00;96535.38;5093207;28;20031;-68
2023/12/25 06:28:11;;;;;;;8.13;6.28;;;;;;;-1.61;100.00;96538.06;5095485;28;20040;-67
2023/12/25 06:30:37;;;;;;;12.27;6.90;;;;;;;-1.62;100.00;96541.53;5091577;28;20092;-67
2023/12/25 06:33:02;;;;;;;7.32;6.57;;;;;;;-1.66;100.00;96538.19;5092802;28;20039;-67
2023/12/25 06:35:28;;;;;;;9.32;6.80;;;;;;;-1.64;100.00;96538.16;5093799;28;20028;-65
2023/12/25 06:37:53;;;;;;;8.25;6.88;;;;;;;-1.63;100.00;96542.44;5089465;28;20081;-65
2023/12/25 06:40:18;;;;;;;12.93;9.82;;;;;;;-1.64;100.00;96538.97;5096552;28;20075;-66
2023/12/25 06:42:44;;;;;;;11.20;8.52;;;;;;;-1.65;100.00;96550.22;5094618;28;20039;-66
2023/12/25 06:45:09;;;;;;;10.35;7.93;;;;;;;-1.67;100.00;96551.13;5092821;28;21279;-67
2023/12/25 06:47:35;;;;;;;10.48;8.40;;;;;;;-1.63;100.00;96545.00;5071771;28;20032;-68
2023/12/25 06:50:00;;;;;;;9.43;7.55;;;;;;;-1.64;100.00;96541.56;5094684;28;20019;-67
2023/12/25 06:52:26;;;;;;;8.65;7.40;;;;;;;-1.66;100.00;96548.53;5097270;28;20028;-65
2023/12/25 06:54:52;;;;;;;8.52;7.45;;;;;;;-1.68;100.00;96546.84;5094416;28;20027;-66
2023/12/25 06:57:17;;;;;;;8.50;7.68;;;;;;;-1.66;100.00;96543.34;5092514;28;20564;-65
2023/12/25 06:59:44;;;;;;;8.52;7.55;;;;;;;-1.62;100.00;96546.69;5089141;28;20039;-67
2023/12/25 07:02:10;;;;;;;8.10;7.30;;;;;;;-1.64;100.00;96540.75;5090359;28;20027;-68
2023/12/25 07:04:36;;;;;;;11.23;8.75;;;;;;;-1.61;100.00;96549.22;5093412;28;20536;-67
2023/12/25 07:07:02;;;;;;;10.07;9.02;;;;;;;-1.61;100.00;96536.31;5092300;28;20523;-67
2023/12/25 07:09:28;;;;;;;9.88;8.90;;;;;;;-1.60;100.00;96545.75;5094055;28;20084;-67
2023/12/25 07:11:53;;;;;;;9.80;8.45;;;;;;;-1.58;100.00;96551.69;5091856;28;20377;-68
2023/12/25 07:14:19;;;;;;;10.32;9.05;;;;;;;-1.60;100.00;96547.50;5093358;28;20784;-67
2023/12/25 07:16:44;;;;;;;10.18;9.07;;;;;;;-1.61;100.00;96562.13;5101450;28;20032;-68
2023/12/25 07:19:09;;;;;;;11.02;8.68;;;;;;;-1.61;100.00;96563.88;5093715;28;20622;-66
2023/12/25 07:21:35;;;;;;;10.25;9.20;;;;;;;-1.63;100.00;96557.91;5093787;28;20419;-68
2023/12/25 07:24:00;;;;;;;9.63;8.70;;;;;;;-1.61;100.00;96571.63;5087814;28;20024;-67
2023/12/25 07:26:26;;;;;;;10.63;8.48;;;;;;;-1.66;100.00;96578.66;5092260;28;20170;-68
2023/12/25 07:28:51;;;;;;;9.13;8.23;;;;;;;-1.67;100.00;96582.97;5091608;28;20065;-67
2023/12/25 07:31:17;;;;;;;9.55;8.57;;;;;;;-1.65;100.00;96576.03;5093125;28;20019;-68
2023/12/25 07:33:43;;;;;;;9.25;8.10;;;;;;;-1.64;100.00;96588.06;5086497;28;20024;-67
2023/12/25 07:36:08;;;;;;;9.55;8.63;;;;;;;-1.59;100.00;96575.00;5093487;28;20043;-68
2023/12/25 07:38:37;;;;;;;12.10;9.10;;;;;;;-1.56;100.00;96568.88;5086601;28;20024;-68
2023/12/25 07:41:07;;;;;;;9.43;8.48;;;;;;;-1.51;100.00;96573.03;5095782;28;20030;-65
2023/12/25 07:43:33;;;;;;;11.25;10.23;;;;;;;-1.51;100.00;96583.38;5090653;28;20043;-67
2023/12/25 07:45:58;;;;;;;11.52;9.23;;;;;;;-1.50;100.00;96579.88;5095219;28;20410;-67
2023/12/25 07:48:23;;;;;;;11.75;10.55;;;;;;;-1.48;100.00;96577.28;5094942;28;20488;-67
2023/12/25 07:50:51;;;;;;;13.20;11.85;;;;;;;-1.48;100.00;96580.69;5088527;28;20107;-66
2023/12/25 07:53:16;;;;;;;16.65;14.88;;;;;;;-1.48;100.00;96570.34;5091031;28;20036;-66
2023/12/25 07:55:42;;;;;;;15.57;13.90;;;;;;;-1.49;100.00;96567.84;5089877;28;20137;-66
2023/12/25 07:58:10;;;;;;;26.70;17.55;;;;;;;-1.46;100.00;96560.00;5090824;28;20024;-66
2023/12/25 08:00:35;;;;;;;19.38;17.23;;;;;;;-1.41;100.00;96565.84;5089011;28;20036;-68
2023/12/25 08:03:01;;;;;;;20.27;17.05;;;;;;;-1.36;100.00;96563.13;5090756;28;20073;-65
2023/12/25 08:05:26;;;;;;;17.95;15.82;;;;;;;-1.33;100.00;96561.31;5093040;28;20039;-67
2023/12/25 08:07:52;;;;;;;17.13;15.43;;;;;;;-1.31;100.00;96558.66;5090888;28;20020;-66
2023/12/25 08:10:17;;;;;;;15.32;13.75;;;;;;;-1.30;100.00;96560.34;5093482;28;20453;-67
2023/12/25 08:12:43;;;;;;;14.25;12.85;;;;;;;-1.28;100.00;96557.72;5092498;28;20608;-68
2023/12/25 08:15:10;;;;;;;17.00;14.43;;;;;;;-1.26;100.00;96555.94;5092101;28;20602;-68
2023/12/25 08:17:36;;;;;;;16.33;13.80;;;;;;;-1.23;100.00;96553.25;5093949;28;20107;-68
2023/12/25 08:20:01;;;;;;;15.93;14.32;;;;;;;-1.19;100.00;96547.97;5086924;28;20059;-68
2023/12/25 08:22:27;;;;;;;25.40;17.15;;;;;;;-1.15;100.00;96543.50;5089682;28;20043;-67
2023/12/25 08:24:53;;;;;;;23.60;21.13;;;;;;;-1.10;100.00;96545.97;5091634;28;20037;-68
2023/12/25 08:27:19;;;;;;;23.08;20.70;;;;;;;-1.05;100.00;96551.81;5093126;28;20107;-68
2023/12/25 08:29:44;;;;;;;30.83;27.13;;;;;;;-0.98;100.00;96545.56;5091888;28;20032;-67
2023/12/25 08:32:09;;;;;;;34.72;26.55;;;;;;;-0.97;100.00;96544.69;5083046;28;20031;-68
2023/12/25 08:34:38;;;;;;;29.55;25.10;;;;;;;-0.94;100.00;96546.31;5092167;28;20036;-68
2023/12/25 08:37:03;;;;;;;36.42;29.98;;;;;;;-0.93;100.00;96558.34;5092817;28;20028;-68
2023/12/25 08:39:29;;;;;;;36.35;30.10;;;;;;;-0.90;100.00;96558.22;5091041;28;20095;-68
2023/12/25 08:41:56;;;;;;;31.95;27.75;;;;;;;-0.93;100.00;96554.03;5090323;28;20039;-68
2023/12/25 08:44:23;;;;;;;48.47;34.58;;;;;;;-0.89;100.00;96563.34;5085969;28;20039;-67
2023/12/25 08:46:48;;;;;;;36.33;29.20;;;;;;;-0.85;100.00;96558.09;5095662;28;20040;-67
2023/12/25 08:49:14;;;;;;;50.72;36.30;;;;;;;-0.85;100.00;96565.84;5092307;28;20107;-68
2023/12/25 08:51:39;;;;;;;41.28;30.48;;;;;;;-0.86;100.00;96562.44;5088602;28;20568;-67
2023/12/25 08:54:05;;;;;;;44.15;32.17;;;;;;;-0.88;100.00;96559.88;5090729;28;20095;-68
2023/12/25 08:56:30;;;;;;;51.40;35.22;;;;;;;-0.85;100.00;96564.13;5089572;28;20032;-68
2023/12/25 08:58:57;;;;;;;46.80;33.15;;;;;;;-0.86;100.00;96559.84;5097153;28;20034;-67
2023/12/25 09:01:24;;;;;;;55.08;37.10;;;;;;;-0.81;100.00;96563.13;5092723;28;20028;-65
2023/12/25 09:03:50;;;;;;;46.22;34.40;;;;;;;-0.77;100.00;96564.69;5095684;28;20028;-66
2023/12/25 09:06:15;;;;;;;44.05;32.45;;;;;;;-0.77;100.00;96564.69;5089830;28;20036;-66
2023/12/25 09:08:41;;;;;;;42.72;31.20;;;;;;;-0.74;100.00;96574.09;5092394;28;20024;-66
2023/12/25 09:11:09;;;;;;;47.92;30.60;;;;;;;-0.75;100.00;96582.75;5093029;28;20501;-66
2023/12/25 09:13:34;;;;;;;44.92;34.30;;;;;;;-0.70;100.00;96580.00;5093930;28;20036;-65
2023/12/25 09:16:00;;;;;;;43.05;34.78;;;;;;;-0.65;100.00;96576.38;5093584;28;20560;-66
2023/12/25 09:18:26;;;;;;;39.08;32.50;;;;;;;-0.63;100.00;96574.59;5092564;28;20020;-66
2023/12/25 09:20:51;;;;;;;38.20;31.60;;;;;;;-0.60;100.00;96576.22;5091075;28;20048;-66
2023/12/25 09:23:18;;;;;;;46.55;35.10;;;;;;;-0.60;100.00;96574.47;5089030;28;20116;-66
2023/12/25 09:25:43;;;;;;;43.42;30.15;;;;;;;-0.58;100.00;96575.25;5092888;28;20031;-66
2023/12/25 09:28:08;;;;;;;43.95;31.17;;;;;;;-0.56;100.00;96576.94;5087438;28;20032;-66
2023/12/25 09:30:34;;;;;;;37.53;31.42;;;;;;;-0.55;100.00;96576.06;5090527;28;20036;-66
2023/12/25 09:32:59;;;;;;;38.80;31.30;;;;;;;-0.60;100.00;96577.06;5096623;28;20031;-66
2023/12/25 09:35:25;;;;;;;38.33;30.67;;;;;;;-0.59;100.00;96572.75;5091904;28;20030;-65
2023/12/25 09:37:50;;;;;;;36.05;28.35;;;;;;;-0.50;100.00;96571.59;5091548;28;20036;-65
2023/12/25 09:40:16;;;;;;;32.90;29.42;;;;;;;-0.25;100.00;96565.56;5093944;28;20044;-64
2023/12/25 09:42:42;;;;;;;30.77;25.38;;;;;;;0.09;100.00;96562.59;5094097;28;20034;-65
2023/12/25 09:45:10;;;;;;;29.40;24.48;;;;;;;0.56;100.00;96553.97;5096131;28;20038;-66
2023/12/25 09:47:36;;;;;;;20.63;16.63;;;;;;;1.05;100.00;96558.09;5093137;28;20040;-64
2023/12/25 09:50:05;;;;;;;14.38;12.98;;;;;;;1.55;100.00;96561.25;5092167;28;20114;-66
2023/12/25 09:52:31;;;;;;;24.52;21.45;;;;;;;1.94;100.00;96550.06;5095858;28;20081;-66
2023/12/25 09:54:56;;;;;;;30.73;20.88;;;;;;;2.34;100.00;96565.63;5098881;28;20024;-67
2023/12/25 09:57:24;;;;;;;28.00;19.60;;;;;;;2.71;100.00;96570.88;5094517;28;20093;-67
2023/12/25 09:59:52;;;;;;;23.80;19.77;;;;;;;3.05;100.00;96579.69;5096804;28;20451;-66
2023/12/25 10:02:21;;;;;;;26.25;18.98;;;;;;;3.32;100.00;96591.47;5095026;28;20504;-66
2023/12/25 10:04:48;;;;;;;23.15;17.10;;;;;;;3.63;100.00;96579.50;5098664;28;20020;-67
2023/12/25 10:07:14;;;;;;;20.23;13.57;;;;;;;3.93;100.00;96597.94;5092770;28;20070;-66
2023/12/25 10:09:40;;;;;;;18.88;13.57;;;;;;;4.23;100.00;96592.06;5089841;28;20599;-66
2023/12/25 10:12:06;;;;;;;18.35;13.13;;;;;;;4.51;100.00;96572.34;5102253;28;20218;-63
2023/12/25 10:14:32;;;;;;;16.75;13.38;;;;;;;4.59;100.00;96569.31;5085829;28;20024;-68
2023/12/25 10:16:58;;;;;;;15.60;12.77;;;;;;;4.60;100.00;96565.78;5096221;28;20420;-64
2023/12/25 10:19:24;;;;;;;14.88;12.50;;;;;;;4.65;100.00;96553.34;5093750;28;20126;-64
2023/12/25 10:21:52;;;;;;;25.77;13.82;;;;;;;4.65;100.00;96549.88;5097856;28;20039;-68
2023/12/25 10:24:18;;;;;;;30.63;14.40;;;;;;;4.53;100.00;96520.09;5091071;28;20102;-65
2023/12/25 10:26:44;;;;;;;48.70;23.92;;;;;;;4.56;100.00;96515.56;5092776;28;20028;-67
2023/12/25 10:29:11;;;;;;;16.13;10.40;;;;;;;4.84;100.00;96518.38;5088472;28;20100;-64
2023/12/25 10:31:39;;;;;;;8.63;7.45;;;;;;;5.18;100.00;96499.97;5097997;28;20040;-67
2023/12/25 10:34:04;;;;;;;10.32;7.50;;;;;;;5.37;100.00;96503.19;5092464;28;20539;-65
2023/12/25 10:36:30;;;;;;;15.88;10.68;;;;;;;5.59;100.00;96496.72;5093924;28;20071;-64
2023/12/25 10:38:56;;;;;;;8.80;7.90;;;;;;;5.81;100.00;96484.97;5088927;28;20394;-66
2023/12/25 10:41:27;;;;;;;12.93;8.23;;;;;;;6.00;100.00;96472.47;5095696;28;20020;-66
2023/12/25 10:43:56;;;;;;;7.72;6.07;;;;;;;6.22;100.00;96447.63;5088540;28;20048;-66
2023/12/25 10:46:26;;;;;;;8.18;6.43;;;;;;;6.37;100.00;96437.97;5093012;28;20031;-64
2023/12/25 10:48:53;;;;;;;18.20;10.48;;;;;;;6.55;100.00;96435.13;5090503;28;20024;-64
2023/12/25 10:51:34;;;;;;;9.60;8.20;;;;;;;6.62;100.00;96423.31;5089653;28;20412;-66
2023/12/25 10:54:01;;;;;;;9.50;6.18;;;;;;;6.71;100.00;96422.72;5091287;28;20054;-65
2023/12/25 10:56:30;;;;;;;4.75;4.30;;;;;;;6.97;100.00;96428.03;5095899;28;20089;-66
2023/12/25 10:59:03;;;;;;;7.50;5.65;;;;;;;7.20;100.00;96417.81;5088621;28;20011;-66
2023/12/25 11:01:31;;;;;;;5.43;4.53;;;;;;;7.44;100.00;96402.22;5090576;28;20050;-65
2023/12/25 11:03:57;;;;;;;5.30;4.72;;;;;;;7.71;100.00;96400.38;5088265;28;20496;-66
2023/12/25 11:06:23;;;;;;;6.97;5.63;;;;;;;7.87;100.00;96397.56;5091034;28;20024;-66
2023/12/25 11:08:49;;;;;;;8.77;6.10;;;;;;;8.03;100.00;96389.44;5094125;28;20028;-67
2023/12/25 11:11:15;;;;;;;5.28;4.85;;;;;;;8.11;100.00;96392.34;5090814;28;20023;-66